createdAt,value
2024-01-20T00:00:19.211Z,-1.67
2024-01-20T00:03:10.905Z,-1.65
2024-01-20T00:05:42.971Z,-1.72
2024-01-20T00:08:14.831Z,-1.75
2024-01-20T00:10:46.938Z,-1.84
2024-01-20T00:13:18.865Z,-1.80
2024-01-20T00:15:50.477Z,-1.87
2024-01-20T00:18:23.160Z,-1.83
2024-01-20T00:20:55.010Z,-1.84
2024-01-20T00:23:26.852Z,-1.92
2024-01-20T00:25:58.882Z,-1.84
2024-01-20T00:28:31.116Z,-1.80
2024-01-20T00:31:03.124Z,-1.71
2024-01-20T00:33:35.166Z,-1.67
2024-01-20T00:36:09.106Z,-1.73
2024-01-20T00:38:43.201Z,-1.67
2024-01-20T00:41:15.363Z,-1.81
2024-01-20T00:43:47.934Z,-1.88
2024-01-20T00:46:19.618Z,-1.90
2024-01-20T00:48:51.285Z,-1.96
2024-01-20T00:51:22.989Z,-1.96
2024-01-20T00:53:54.687Z,-2.14
2024-01-20T00:56:26.749Z,-2.20
2024-01-20T00:58:59.171Z,-2.30
2024-01-20T01:01:31.052Z,-2.36
2024-01-20T01:04:02.781Z,-2.27
2024-01-20T01:06:34.507Z,-2.37
2024-01-20T01:09:06.374Z,-2.36
2024-01-20T01:11:38.106Z,-2.45
2024-01-20T01:14:10.098Z,-2.40
2024-01-20T01:16:41.744Z,-2.43
2024-01-20T01:19:14.393Z,-2.51
2024-01-20T01:21:45.904Z,-2.36
2024-01-20T01:24:17.667Z,-2.40
2024-01-20T01:26:49.716Z,-2.28
2024-01-20T01:29:21.492Z,-2.45
2024-01-20T01:31:53.207Z,-2.37
2024-01-20T01:34:24.812Z,-2.34
2024-01-20T01:36:56.735Z,-2.31
2024-01-20T01:39:28.264Z,-2.25
2024-01-20T01:41:59.884Z,-2.25
2024-01-20T01:44:31.576Z,-2.37
2024-01-20T01:47:03.431Z,-2.46
2024-01-20T01:49:35.615Z,-2.42
2024-01-20T01:52:09.877Z,-2.53
2024-01-20T01:54:42.016Z,-2.51
2024-01-20T01:57:16.438Z,-2.43
2024-01-20T01:59:48.481Z,-2.51
2024-01-20T02:02:20.061Z,-2.47
2024-01-20T02:04:51.728Z,-2.72
2024-01-20T02:07:23.953Z,-2.75
2024-01-20T02:09:55.926Z,-2.88
2024-01-20T02:12:28.672Z,-2.87
2024-01-20T02:15:01.671Z,-2.78
2024-01-20T02:17:33.340Z,-2.89
2024-01-20T02:20:06.132Z,-2.89
2024-01-20T02:22:37.631Z,-2.94
2024-01-20T02:25:10.391Z,-2.91
2024-01-20T02:27:42.190Z,-2.82
2024-01-20T02:30:14.750Z,-2.86
2024-01-20T02:32:46.395Z,-2.70
2024-01-20T02:35:20.102Z,-2.78
2024-01-20T02:37:52.166Z,-2.75
2024-01-20T02:40:23.985Z,-2.69
2024-01-20T02:42:55.569Z,-2.66
2024-01-20T02:45:27.371Z,-2.54
2024-01-20T02:47:59.915Z,-2.72
2024-01-20T02:50:32.735Z,-2.69
2024-01-20T02:53:04.901Z,-2.84
2024-01-20T02:55:36.844Z,-2.91
2024-01-20T02:58:08.425Z,-2.86
2024-01-20T03:00:40.452Z,-3.04
2024-01-20T03:03:12.184Z,-2.92
2024-01-20T03:05:44.135Z,-2.92
2024-01-20T03:08:16.124Z,-2.91
2024-01-20T03:10:47.975Z,-2.92
2024-01-20T03:13:19.811Z,-3.00
2024-01-20T03:15:51.535Z,-3.07
2024-01-20T03:18:23.159Z,-3.25
2024-01-20T03:20:55.206Z,-3.29
2024-01-20T03:23:27.038Z,-3.18
2024-01-20T03:25:58.767Z,-3.14
2024-01-20T03:28:30.587Z,-3.15
2024-01-20T03:31:02.126Z,-3.38
2024-01-20T03:33:33.650Z,-3.25
2024-01-20T03:36:05.871Z,-3.36
2024-01-20T03:38:37.486Z,-3.35
2024-01-20T03:41:09.493Z,-3.26
2024-01-20T03:43:41.185Z,-3.27
2024-01-20T03:46:12.883Z,-3.14
2024-01-20T03:48:44.547Z,-3.13
2024-01-20T03:51:17.003Z,-3.17
2024-01-20T03:53:48.682Z,-3.14
2024-01-20T03:56:20.220Z,-3.17
2024-01-20T03:58:51.830Z,-3.08
2024-01-20T04:01:24.260Z,-3.14
2024-01-20T04:03:55.837Z,-3.25
2024-01-20T04:06:27.696Z,-3.35
2024-01-20T04:08:59.341Z,-3.49
2024-01-20T04:11:31.339Z,-3.44
2024-01-20T04:14:02.777Z,-3.58
2024-01-20T04:16:34.432Z,-3.64
2024-01-20T04:19:05.953Z,-3.62
2024-01-20T04:21:37.898Z,-3.79
2024-01-20T04:24:09.877Z,-3.70
2024-01-20T04:26:41.535Z,-3.77
2024-01-20T04:29:13.064Z,-3.79
2024-01-20T04:31:44.658Z,-3.84
2024-01-20T04:34:16.306Z,-3.95
2024-01-20T04:36:48.002Z,-3.89
2024-01-20T04:39:19.717Z,-4.10
2024-01-20T04:41:51.946Z,-3.99
2024-01-20T04:44:24.458Z,-4.02
2024-01-20T04:46:56.010Z,-4.03
2024-01-20T04:49:27.670Z,-3.96
2024-01-20T04:52:03.412Z,-4.22
2024-01-20T04:54:34.837Z,-4.21
2024-01-20T04:57:07.222Z,-4.25
2024-01-20T04:59:38.717Z,-4.31
2024-01-20T05:02:10.971Z,-4.24
2024-01-20T05:04:42.700Z,-4.34
2024-01-20T05:07:14.830Z,-4.36
2024-01-20T05:09:46.537Z,-4.45
2024-01-20T05:12:18.358Z,-4.42
2024-01-20T05:14:49.967Z,-4.29
2024-01-20T05:17:21.548Z,-4.29
2024-01-20T05:19:53.387Z,-4.28
2024-01-20T05:22:25.238Z,-4.50
2024-01-20T05:24:56.808Z,-4.38
2024-01-20T05:27:29.389Z,-4.35
2024-01-20T05:30:01.006Z,-4.44
2024-01-20T05:32:32.795Z,-4.41
2024-01-20T05:35:04.893Z,-4.42
2024-01-20T05:37:36.507Z,-4.33
2024-01-20T05:40:10.083Z,-4.34
2024-01-20T05:42:41.736Z,-4.42
2024-01-20T05:45:15.434Z,-4.44
2024-01-20T05:47:47.411Z,-4.65
2024-01-20T05:50:19.110Z,-4.66
2024-01-20T05:52:51.354Z,-4.73
2024-01-20T05:55:22.901Z,-4.67
2024-01-20T05:57:54.895Z,-4.64
2024-01-20T06:00:26.693Z,-4.68
2024-01-20T06:02:58.605Z,-4.54
2024-01-20T06:05:30.629Z,-4.45
2024-01-20T06:08:02.198Z,-4.42
2024-01-20T06:10:33.737Z,-4.43
2024-01-20T06:13:05.652Z,-4.55
2024-01-20T06:15:37.473Z,-4.46
2024-01-20T06:18:09.483Z,-4.52
2024-01-20T06:20:41.171Z,-4.56
2024-01-20T06:23:12.928Z,-4.50
2024-01-20T06:25:45.093Z,-4.53
2024-01-20T06:28:16.624Z,-4.52
2024-01-20T06:30:50.875Z,-4.56
2024-01-20T06:33:22.794Z,-4.54
2024-01-20T06:35:54.493Z,-4.58
2024-01-20T06:38:26.374Z,-4.71
2024-01-20T06:40:57.995Z,-4.65
2024-01-20T06:43:29.739Z,-4.65
2024-01-20T06:46:02.202Z,-4.58
2024-01-20T06:48:35.642Z,-4.59
2024-01-20T06:51:10.670Z,-4.63
2024-01-20T06:53:42.691Z,-4.63
2024-01-20T06:56:15.159Z,-4.69
2024-01-20T06:58:46.786Z,-4.58
2024-01-20T07:01:19.090Z,-4.68
2024-01-20T07:03:50.813Z,-4.73
2024-01-20T07:06:26.566Z,-4.67
2024-01-20T07:08:57.065Z,-4.64
2024-01-20T07:11:28.981Z,-4.65
2024-01-20T07:14:00.693Z,-4.73
2024-01-20T07:16:32.254Z,-4.78
2024-01-20T07:19:03.986Z,-4.78
2024-01-20T07:21:36.063Z,-4.66
2024-01-20T07:24:08.253Z,-4.57
2024-01-20T07:26:41.069Z,-4.75
2024-01-20T07:29:14.317Z,-4.80
2024-01-20T07:31:45.818Z,-4.74
2024-01-20T07:34:17.714Z,-4.80
2024-01-20T07:36:49.458Z,-4.72
2024-01-20T07:39:21.030Z,-4.85
2024-01-20T07:41:52.640Z,-4.85
2024-01-20T07:44:24.431Z,-4.90
2024-01-20T07:46:56.033Z,-4.92
2024-01-20T07:49:28.021Z,-4.82
2024-01-20T07:51:59.748Z,-4.79
2024-01-20T07:54:31.444Z,-4.75
2024-01-20T07:57:03.198Z,-4.85
2024-01-20T07:59:34.853Z,-5.11
2024-01-20T08:02:07.029Z,-5.19
2024-01-20T08:04:38.815Z,-5.29
2024-01-20T08:07:10.823Z,-5.18
2024-01-20T08:09:42.980Z,-5.22
2024-01-20T08:12:14.767Z,-5.21
2024-01-20T08:14:46.375Z,-5.08
2024-01-20T08:17:18.366Z,-5.06
2024-01-20T08:19:50.524Z,-4.95
2024-01-20T08:22:23.090Z,-4.94
2024-01-20T08:24:54.630Z,-4.99
2024-01-20T08:27:26.161Z,-4.94
2024-01-20T08:29:57.932Z,-4.91
2024-01-20T08:32:30.137Z,-4.83
2024-01-20T08:35:05.002Z,-4.95
2024-01-20T08:37:36.886Z,-4.96
2024-01-20T08:40:10.744Z,-5.04
2024-01-20T08:42:42.250Z,-5.03
2024-01-20T08:45:14.740Z,-4.89
2024-01-20T08:47:47.258Z,-4.93
2024-01-20T08:50:19.496Z,-4.92
2024-01-20T08:52:51.395Z,-4.95
2024-01-20T08:55:23.777Z,-4.97
2024-01-20T08:57:58.046Z,-4.79
2024-01-20T09:00:30.255Z,-4.78
2024-01-20T09:03:02.057Z,-4.76
2024-01-20T09:05:38.218Z,-4.87
2024-01-20T09:08:11.605Z,-5.03
2024-01-20T09:10:43.654Z,-4.85
2024-01-20T09:13:15.559Z,-4.85
2024-01-20T09:15:47.361Z,-4.78
2024-01-20T09:18:21.687Z,-4.71
2024-01-20T09:20:53.866Z,-4.75
2024-01-20T09:23:25.692Z,-4.63
2024-01-20T09:25:57.391Z,-4.58
2024-01-20T09:28:29.082Z,-4.46
2024-01-20T09:31:00.914Z,-4.36
2024-01-20T09:33:33.720Z,-4.32
2024-01-20T09:36:06.070Z,-4.22
2024-01-20T09:38:37.825Z,-4.31
2024-01-20T09:41:11.200Z,-4.12
2024-01-20T09:43:43.154Z,-4.10
2024-01-20T09:46:15.010Z,-4.14
2024-01-20T09:48:47.540Z,-4.06
2024-01-20T09:51:25.864Z,-4.26
2024-01-20T09:54:00.825Z,-4.07
2024-01-20T09:56:33.366Z,-3.95
2024-01-20T09:59:06.349Z,-3.97
2024-01-20T10:01:40.189Z,-3.86
2024-01-20T10:04:14.529Z,-3.94
2024-01-20T10:06:46.826Z,-3.84
2024-01-20T10:09:18.747Z,-3.94
2024-01-20T10:11:50.788Z,-3.84
2024-01-20T10:14:22.575Z,-3.87
2024-01-20T10:16:54.302Z,-3.83
2024-01-20T10:19:26.229Z,-3.65
2024-01-20T10:21:58.273Z,-3.72
2024-01-20T10:24:30.192Z,-3.73
2024-01-20T10:27:03.390Z,-3.62
2024-01-20T10:29:35.313Z,-3.56
2024-01-20T10:32:09.407Z,-3.34
2024-01-20T10:34:41.347Z,-3.50
2024-01-20T10:37:14.953Z,-3.55
2024-01-20T10:39:47.834Z,-3.48
2024-01-20T10:42:20.947Z,-3.59
2024-01-20T10:45:00.754Z,-3.46
2024-01-20T10:47:37.197Z,-3.48
2024-01-20T10:50:11.056Z,-3.35
2024-01-20T10:52:43.396Z,-3.35
2024-01-20T10:55:17.008Z,-3.45
2024-01-20T10:57:50.222Z,-3.29
2024-01-20T11:00:23.648Z,-3.54
2024-01-20T11:02:56.009Z,-3.38
2024-01-20T11:05:29.566Z,-3.40
2024-01-20T11:08:06.854Z,-3.59
2024-01-20T11:10:48.780Z,-3.52
2024-01-20T11:13:20.545Z,-3.47
2024-01-20T11:15:54.220Z,-3.37
2024-01-20T11:18:28.190Z,-3.39
2024-01-20T11:21:05.122Z,-3.28
2024-01-20T11:23:37.309Z,-3.24
2024-01-20T11:26:15.153Z,-3.45
2024-01-20T11:28:48.523Z,-3.39
2024-01-20T11:31:23.660Z,-3.30
2024-01-20T11:33:55.932Z,-3.19
2024-01-20T11:36:31.256Z,-3.19
2024-01-20T11:39:04.873Z,-3.22
2024-01-20T11:41:36.959Z,-2.95
2024-01-20T11:44:09.450Z,-3.15
2024-01-20T11:46:41.830Z,-3.09
2024-01-20T11:49:13.861Z,-2.91
2024-01-20T11:51:46.053Z,-2.86
2024-01-20T11:54:18.221Z,-2.79
2024-01-20T11:56:57.703Z,-2.89
2024-01-20T11:59:29.859Z,-2.81
2024-01-20T12:02:02.200Z,-2.86
2024-01-20T12:04:34.044Z,-2.99
2024-01-20T12:07:05.986Z,-2.86
2024-01-20T12:09:37.972Z,-2.88
2024-01-20T12:12:10.860Z,-2.67
2024-01-20T12:14:45.459Z,-2.64
2024-01-20T12:17:17.432Z,-2.63
2024-01-20T12:19:49.385Z,-2.45
2024-01-20T12:22:21.205Z,-2.68
2024-01-20T12:24:55.549Z,-2.62
2024-01-20T12:27:28.390Z,-2.56
2024-01-20T12:30:00.099Z,-2.53
2024-01-20T12:32:32.210Z,-2.42
2024-01-20T12:35:04.157Z,-2.55
2024-01-20T12:37:35.867Z,-2.55
2024-01-20T12:40:09.678Z,-2.68
2024-01-20T12:42:41.987Z,-2.55
2024-01-20T12:45:14.318Z,-2.39
2024-01-20T12:47:45.987Z,-2.32
2024-01-20T12:50:18.187Z,-2.22
2024-01-20T12:52:51.119Z,-2.14
2024-01-20T12:55:22.975Z,-2.09
2024-01-20T12:57:54.630Z,-2.00
2024-01-20T13:00:26.846Z,-2.21
2024-01-20T13:02:58.800Z,-2.17
2024-01-20T13:05:31.000Z,-2.41
2024-01-20T13:08:03.187Z,-2.44
2024-01-20T13:10:35.464Z,-2.50
2024-01-20T13:13:07.370Z,-2.64
2024-01-20T13:15:39.191Z,-2.62
2024-01-20T13:18:10.971Z,-2.84
2024-01-20T13:20:42.997Z,-2.84
2024-01-20T13:23:15.912Z,-2.73
2024-01-20T13:25:48.633Z,-2.73
2024-01-20T13:28:21.164Z,-2.63
2024-01-20T13:30:52.996Z,-2.79
2024-01-20T13:33:26.436Z,-2.66
2024-01-20T13:35:58.710Z,-2.65
2024-01-20T13:38:30.456Z,-2.62
2024-01-20T13:41:02.214Z,-2.38
2024-01-20T13:43:33.950Z,-2.52
2024-01-20T13:46:06.327Z,-2.56
2024-01-20T13:48:38.014Z,-2.59
2024-01-20T13:51:09.902Z,-2.55
2024-01-20T13:53:41.743Z,-2.38
2024-01-20T13:56:14.367Z,-2.44
2024-01-20T13:58:46.850Z,-2.26
2024-01-20T14:01:23.108Z,-2.03
2024-01-20T14:03:55.434Z,-1.93
2024-01-20T14:06:27.548Z,-1.74
2024-01-20T14:08:59.616Z,-2.02
2024-01-20T14:11:32.080Z,-2.03
2024-01-20T14:14:04.093Z,-2.13
2024-01-20T14:16:36.091Z,-2.17
2024-01-20T14:19:09.111Z,-2.15
2024-01-20T14:21:41.449Z,-2.23
2024-01-20T14:24:13.602Z,-2.30
2024-01-20T14:26:46.120Z,-2.43
2024-01-20T14:29:17.897Z,-2.63
2024-01-20T14:31:50.877Z,-2.56
2024-01-20T14:34:23.671Z,-2.83
2024-01-20T14:36:57.286Z,-2.90
2024-01-20T14:39:28.998Z,-2.93
2024-01-20T14:42:00.845Z,-3.12
2024-01-20T14:44:32.635Z,-3.01
2024-01-20T14:47:04.526Z,-2.96
2024-01-20T14:49:36.345Z,-2.99
2024-01-20T14:52:09.630Z,-3.02
2024-01-20T14:54:41.346Z,-3.18
2024-01-20T14:57:13.564Z,-3.09
2024-01-20T14:59:45.075Z,-3.30
2024-01-20T15:02:17.259Z,-3.17
2024-01-20T15:04:48.931Z,-3.13
2024-01-20T15:07:22.141Z,-3.10
2024-01-20T15:09:53.900Z,-3.09
2024-01-20T15:12:26.025Z,-3.17
2024-01-20T15:14:57.762Z,-3.14
2024-01-20T15:17:30.411Z,-3.22
2024-01-20T15:20:02.213Z,-3.19
2024-01-20T15:22:34.048Z,-3.14
2024-01-20T15:25:07.121Z,-3.40
2024-01-20T15:27:41.430Z,-3.33
2024-01-20T15:30:15.139Z,-3.50
2024-01-20T15:32:46.832Z,-3.56
2024-01-20T15:35:18.683Z,-3.55
2024-01-20T15:37:50.474Z,-3.66
2024-01-20T15:40:22.256Z,-3.64
2024-01-20T15:42:54.213Z,-3.65
2024-01-20T15:45:26.285Z,-3.68
2024-01-20T15:47:58.461Z,-3.72
2024-01-20T15:50:30.119Z,-3.79
2024-01-20T15:53:01.789Z,-3.64
2024-01-20T15:55:33.737Z,-3.58
2024-01-20T15:58:06.024Z,-3.61
2024-01-20T16:00:37.700Z,-3.65
2024-01-20T16:03:09.991Z,-3.83
2024-01-20T16:05:41.906Z,-3.75
2024-01-20T16:08:14.367Z,-3.79
2024-01-20T16:10:46.522Z,-3.74
2024-01-20T16:13:18.635Z,-3.65
2024-01-20T16:15:50.480Z,-3.63
2024-01-20T16:18:22.477Z,-3.68
2024-01-20T16:20:54.240Z,-3.83
2024-01-20T16:23:26.026Z,-3.82
2024-01-20T16:25:57.814Z,-3.75
2024-01-20T16:28:32.502Z,-3.81
2024-01-20T16:31:05.810Z,-3.59
2024-01-20T16:33:37.511Z,-3.50
2024-01-20T16:36:12.184Z,-3.44
2024-01-20T16:38:44.177Z,-3.50
2024-01-20T16:41:16.437Z,-3.60
2024-01-20T16:43:48.395Z,-3.57
2024-01-20T16:46:20.293Z,-3.77
2024-01-20T16:48:52.165Z,-3.72
2024-01-20T16:51:27.382Z,-3.66
2024-01-20T16:53:59.610Z,-3.71
2024-01-20T16:56:31.430Z,-3.53
2024-01-20T16:59:03.858Z,-3.67
2024-01-20T17:01:35.594Z,-3.79
2024-01-20T17:04:08.441Z,-3.85
2024-01-20T17:06:40.455Z,-3.74
2024-01-20T17:09:14.699Z,-3.59
2024-01-20T17:11:48.355Z,-3.55
2024-01-20T17:14:20.518Z,-3.55
2024-01-20T17:16:52.923Z,-3.58
2024-01-20T17:19:28.135Z,-3.69
2024-01-20T17:22:00.124Z,-3.62
2024-01-20T17:24:34.778Z,-3.66
2024-01-20T17:27:07.692Z,-3.70
2024-01-20T17:29:40.015Z,-3.67
2024-01-20T17:32:11.800Z,-3.70
2024-01-20T17:34:44.393Z,-3.61
2024-01-20T17:37:16.512Z,-3.68
2024-01-20T17:39:48.521Z,-3.63
2024-01-20T17:42:21.132Z,-3.60
2024-01-20T17:44:52.914Z,-3.55
2024-01-20T17:47:24.759Z,-3.52
2024-01-20T17:49:56.632Z,-3.59
2024-01-20T17:52:28.735Z,-3.66
2024-01-20T17:55:01.411Z,-3.76
2024-01-20T17:57:33.190Z,-3.72
2024-01-20T18:00:07.907Z,-3.60
2024-01-20T18:02:40.909Z,-3.59
2024-01-20T18:05:14.493Z,-3.48
2024-01-20T18:07:51.306Z,-3.61
2024-01-20T18:10:23.685Z,-3.60
2024-01-20T18:12:55.907Z,-3.56
2024-01-20T18:15:28.068Z,-3.61
2024-01-20T18:17:59.803Z,-3.51
2024-01-20T18:20:31.689Z,-3.52
2024-01-20T18:23:03.507Z,-3.50
2024-01-20T18:25:35.624Z,-3.66
2024-01-20T18:28:08.411Z,-3.71
2024-01-20T18:30:40.517Z,-3.60
2024-01-20T18:33:12.830Z,-3.63
2024-01-20T18:35:44.905Z,-3.60
2024-01-20T18:38:16.897Z,-3.71
2024-01-20T18:40:49.040Z,-3.80
2024-01-20T18:43:21.048Z,-3.82
2024-01-20T18:45:52.849Z,-3.97
2024-01-20T18:48:25.390Z,-3.91
2024-01-20T18:50:57.367Z,-3.87
2024-01-20T18:53:29.150Z,-3.82
2024-01-20T18:56:01.152Z,-3.69
2024-01-20T18:58:34.167Z,-3.69
2024-01-20T19:01:06.625Z,-3.70
2024-01-20T19:03:38.825Z,-3.73
2024-01-20T19:06:11.012Z,-3.81
2024-01-20T19:08:42.717Z,-3.75
2024-01-20T19:11:14.547Z,-3.79
2024-01-20T19:13:46.201Z,-3.72
2024-01-20T19:16:18.476Z,-3.72
2024-01-20T19:18:50.877Z,-3.76
2024-01-20T19:21:22.837Z,-3.79
2024-01-20T19:23:55.192Z,-3.84
2024-01-20T19:26:27.474Z,-3.76
2024-01-20T19:28:59.216Z,-3.76
2024-01-20T19:31:31.168Z,-3.63
2024-01-20T19:34:04.434Z,-3.55
2024-01-20T19:36:36.700Z,-3.58
2024-01-20T19:39:09.729Z,-3.44
2024-01-20T19:41:41.499Z,-3.54
2024-01-20T19:44:13.110Z,-3.57
2024-01-20T19:46:45.453Z,-3.53
2024-01-20T19:49:19.598Z,-3.62
2024-01-20T19:51:51.896Z,-3.62
2024-01-20T19:54:23.742Z,-3.73
2024-01-20T19:56:55.579Z,-3.69
2024-01-20T19:59:27.587Z,-3.62
2024-01-20T20:01:59.267Z,-3.63
2024-01-20T20:04:31.172Z,-3.56
2024-01-20T20:07:10.005Z,-3.52
2024-01-20T20:09:42.034Z,-3.26
2024-01-20T20:12:13.924Z,-3.24
2024-01-20T20:14:45.932Z,-3.28
2024-01-20T20:17:18.784Z,-3.26
2024-01-20T20:19:50.489Z,-3.44
2024-01-20T20:22:22.848Z,-3.42
2024-01-20T20:24:54.548Z,-3.51
2024-01-20T20:27:26.646Z,-3.59
2024-01-20T20:29:59.901Z,-3.58
2024-01-20T20:32:32.009Z,-3.62
2024-01-20T20:35:04.530Z,-3.41
2024-01-20T20:37:36.297Z,-3.59
2024-01-20T20:40:11.521Z,-3.62
2024-01-20T20:42:43.484Z,-3.66
2024-01-20T20:45:16.740Z,-3.70
2024-01-20T20:47:48.931Z,-3.65
2024-01-20T20:50:20.849Z,-3.72
2024-01-20T20:52:53.282Z,-3.80
2024-01-20T20:55:25.151Z,-3.82
2024-01-20T20:57:57.048Z,-3.80
2024-01-20T21:00:28.944Z,-3.52
2024-01-20T21:03:01.385Z,-3.39
2024-01-20T21:05:33.517Z,-3.14
2024-01-20T21:08:06.157Z,-3.13
2024-01-20T21:10:38.840Z,-3.16
2024-01-20T21:13:11.554Z,-3.00
2024-01-20T21:15:43.972Z,-3.13
2024-01-20T21:18:16.240Z,-3.15
2024-01-20T21:20:48.853Z,-3.33
2024-01-20T21:23:21.139Z,-3.39
2024-01-20T21:25:54.767Z,-3.33
2024-01-20T21:28:27.200Z,-3.46
2024-01-20T21:31:01.551Z,-3.36
2024-01-20T21:33:33.787Z,-3.47
2024-01-20T21:36:06.621Z,-3.47
2024-01-20T21:38:38.945Z,-3.39
2024-01-20T21:41:11.118Z,-3.44
2024-01-20T21:43:42.807Z,-3.35
2024-01-20T21:46:14.903Z,-3.47
2024-01-20T21:48:47.089Z,-3.40
2024-01-20T21:51:18.999Z,-3.41
2024-01-20T21:53:51.048Z,-3.58
2024-01-20T21:56:22.886Z,-3.47
2024-01-20T21:58:55.758Z,-3.50
2024-01-20T22:01:27.696Z,-3.46
2024-01-20T22:03:59.656Z,-3.39
2024-01-20T22:06:32.260Z,-3.35
2024-01-20T22:09:06.383Z,-3.23
2024-01-20T22:11:38.642Z,-3.31
2024-01-20T22:14:10.432Z,-3.38
2024-01-20T22:16:42.591Z,-3.59
2024-01-20T22:19:15.661Z,-3.61
2024-01-20T22:21:48.366Z,-3.44
2024-01-20T22:24:20.508Z,-3.37
2024-01-20T22:26:52.555Z,-3.15
2024-01-20T22:29:30.993Z,-3.22
2024-01-20T22:32:04.925Z,-3.19
2024-01-20T22:34:37.454Z,-3.07
2024-01-20T22:37:09.219Z,-3.11
2024-01-20T22:39:41.566Z,-3.09
2024-01-20T22:42:13.466Z,-3.28
2024-01-20T22:44:45.317Z,-3.33
2024-01-20T22:47:17.910Z,-3.43
2024-01-20T22:49:50.967Z,-3.56
2024-01-20T22:52:23.032Z,-3.65
2024-01-20T22:54:54.820Z,-3.85
2024-01-20T22:57:26.710Z,-3.64
2024-01-20T22:59:58.544Z,-3.50
2024-01-20T23:02:31.401Z,-3.51
2024-01-20T23:05:03.048Z,-3.58
2024-01-20T23:07:34.864Z,-3.66
2024-01-20T23:10:09.461Z,-3.69
2024-01-20T23:12:41.270Z,-3.85
2024-01-20T23:15:13.815Z,-3.84
2024-01-20T23:17:45.695Z,-3.86
2024-01-20T23:20:18.269Z,-3.93
2024-01-20T23:22:50.040Z,-3.93
2024-01-20T23:25:21.700Z,-4.13
2024-01-20T23:27:53.400Z,-4.08
2024-01-20T23:30:31.192Z,-4.06
2024-01-20T23:33:03.184Z,-4.03
2024-01-20T23:35:35.782Z,-3.93
2024-01-20T23:38:09.402Z,-4.13
2024-01-20T23:40:41.027Z,-4.02
2024-01-20T23:43:12.630Z,-4.00
2024-01-20T23:45:44.354Z,-3.99
2024-01-20T23:48:16.155Z,-4.01
2024-01-20T23:50:49.202Z,-4.12
2024-01-20T23:53:21.041Z,-4.20
2024-01-20T23:55:52.768Z,-4.24
2024-01-20T23:58:25.128Z,-4.26
